createdAt,value
2023-05-28T00:00:07.458Z,87.02
2023-05-28T00:02:39.180Z,88.30
2023-05-28T00:05:06.323Z,87.39
2023-05-28T00:07:32.976Z,88.13
2023-05-28T00:09:59.488Z,88.22
2023-05-28T00:12:26.546Z,88.92
2023-05-28T00:14:53.642Z,89.23
2023-05-28T00:17:20.305Z,89.91
2023-05-28T00:19:46.761Z,90.32
2023-05-28T00:22:13.646Z,89.93
2023-05-28T00:24:40.352Z,88.50
2023-05-28T00:27:09.480Z,89.41
2023-05-28T00:29:36.040Z,88.49
2023-05-28T00:32:02.952Z,89.40
2023-05-28T00:34:29.809Z,89.83
2023-05-28T00:36:56.442Z,90.23
2023-05-28T00:39:23.216Z,89.65
2023-05-28T00:42:01.755Z,89.75
2023-05-28T00:44:28.708Z,90.63
2023-05-28T00:46:56.607Z,90.73
2023-05-28T00:49:24.327Z,91.29
2023-05-28T00:51:51.113Z,91.33
2023-05-28T00:54:17.730Z,90.34
2023-05-28T00:56:44.307Z,90.06
2023-05-28T00:59:13.389Z,90.22
2023-05-28T01:01:40.727Z,89.25
2023-05-28T01:04:07.377Z,88.81
2023-05-28T01:06:34.189Z,88.51
2023-05-28T01:09:00.941Z,87.82
2023-05-28T01:11:28.011Z,87.37
2023-05-28T01:13:55.530Z,86.95
2023-05-28T01:16:22.609Z,86.84
2023-05-28T01:18:49.771Z,87.38
2023-05-28T01:21:17.495Z,88.75
2023-05-28T01:23:48.577Z,88.19
2023-05-28T01:26:16.910Z,87.54
2023-05-28T01:28:47.473Z,87.07
2023-05-28T01:31:15.607Z,87.76
2023-05-28T01:33:43.755Z,88.34
2023-05-28T01:36:25.138Z,88.72
2023-05-28T01:38:54.014Z,88.83
2023-05-28T01:41:21.309Z,88.84
2023-05-28T01:43:48.528Z,88.69
2023-05-28T01:46:15.995Z,87.85
2023-05-28T01:48:43.010Z,87.44
2023-05-28T01:51:11.211Z,87.31
2023-05-28T01:53:37.755Z,88.87
2023-05-28T01:56:04.714Z,90.06
2023-05-28T01:58:31.640Z,91.61
2023-05-28T02:01:12.943Z,91.50
2023-05-28T02:03:39.564Z,91.17
2023-05-28T02:06:06.222Z,91.97
2023-05-28T02:08:32.755Z,91.42
2023-05-28T02:11:01.010Z,92.36
2023-05-28T02:13:28.825Z,92.93
2023-05-28T02:15:56.800Z,92.93
2023-05-28T02:18:23.595Z,93.45
2023-05-28T02:20:51.319Z,93.36
2023-05-28T02:23:17.907Z,94.16
2023-05-28T02:25:47.139Z,93.96
2023-05-28T02:28:13.659Z,94.38
2023-05-28T02:30:40.443Z,94.20
2023-05-28T02:33:08.125Z,96.75
2023-05-28T02:35:34.612Z,96.76
2023-05-28T02:38:01.079Z,96.94
2023-05-28T02:40:27.674Z,97.35
2023-05-28T02:42:54.189Z,96.96
2023-05-28T02:45:20.686Z,98.03
2023-05-28T02:47:47.273Z,99.68
2023-05-28T02:50:14.087Z,99.80
2023-05-28T02:52:53.749Z,100.00
2023-05-28T02:55:20.342Z,100.00
2023-05-28T02:57:47.529Z,100.00
2023-05-28T03:00:14.823Z,99.86
2023-05-28T03:02:42.099Z,99.85
2023-05-28T03:05:08.847Z,99.26
2023-05-28T03:07:35.538Z,98.52
2023-05-28T03:10:02.585Z,98.66
2023-05-28T03:12:33.150Z,99.94
2023-05-28T03:14:59.663Z,99.96
2023-05-28T03:17:26.340Z,100.00
2023-05-28T03:19:52.819Z,100.00
2023-05-28T03:22:21.692Z,100.00
2023-05-28T03:24:48.375Z,100.00
2023-05-28T03:27:17.619Z,100.00
2023-05-28T03:29:44.662Z,100.00
2023-05-28T03:32:18.553Z,100.00
2023-05-28T03:34:45.118Z,100.00
2023-05-28T03:37:11.861Z,100.00
2023-05-28T03:39:40.511Z,100.00
2023-05-28T03:42:08.588Z,100.00
2023-05-28T03:44:35.865Z,100.00
2023-05-28T03:47:03.367Z,100.00
2023-05-28T03:49:30.149Z,100.00
2023-05-28T03:51:58.014Z,100.00
2023-05-28T03:54:26.203Z,100.00
2023-05-28T03:56:52.657Z,100.00
2023-05-28T03:59:21.106Z,100.00
2023-05-28T04:01:48.122Z,100.00
2023-05-28T04:04:14.773Z,100.00
2023-05-28T04:06:41.374Z,100.00
2023-05-28T04:09:08.325Z,99.77
2023-05-28T04:11:36.117Z,99.20
2023-05-28T04:14:02.793Z,98.78
2023-05-28T04:16:29.337Z,98.11
2023-05-28T04:18:56.149Z,98.30
2023-05-28T04:21:23.312Z,98.92
2023-05-28T04:23:50.075Z,98.65
2023-05-28T04:26:17.304Z,97.91
2023-05-28T04:28:43.828Z,96.91
2023-05-28T04:31:10.961Z,97.52
2023-05-28T04:33:37.585Z,96.47
2023-05-28T04:36:04.771Z,96.90
2023-05-28T04:38:34.238Z,97.02
2023-05-28T04:41:01.216Z,97.53
2023-05-28T04:43:30.619Z,97.77
2023-05-28T04:45:59.938Z,96.69
2023-05-28T04:48:27.051Z,96.04
2023-05-28T04:50:54.883Z,95.12
2023-05-28T04:53:21.600Z,95.15
2023-05-28T04:55:48.173Z,94.56
2023-05-28T04:58:15.126Z,95.09
2023-05-28T05:00:41.624Z,94.61
2023-05-28T05:03:09.640Z,94.32
2023-05-28T05:05:36.198Z,93.97
2023-05-28T05:08:02.963Z,93.53
2023-05-28T05:10:29.639Z,93.41
2023-05-28T05:12:56.585Z,92.75
2023-05-28T05:15:23.083Z,92.41
2023-05-28T05:17:49.481Z,91.49
2023-05-28T05:20:15.927Z,90.97
2023-05-28T05:22:42.429Z,91.01
2023-05-28T05:25:09.135Z,91.63
2023-05-28T05:27:37.600Z,91.52
2023-05-28T05:30:06.406Z,90.36
2023-05-28T05:32:33.258Z,90.13
2023-05-28T05:34:59.780Z,90.04
2023-05-28T05:37:26.510Z,90.43
2023-05-28T05:40:28.940Z,89.50
2023-05-28T05:43:15.765Z,87.52
2023-05-28T05:45:42.458Z,86.85
2023-05-28T05:48:10.995Z,87.04
2023-05-28T05:50:56.861Z,86.33
2023-05-28T05:53:24.382Z,82.20
2023-05-28T05:55:51.821Z,78.07
2023-05-28T05:58:18.946Z,77.37
2023-05-28T06:00:46.297Z,77.03
2023-05-28T06:03:13.377Z,77.69
2023-05-28T06:05:59.151Z,76.60
2023-05-28T06:08:49.667Z,70.32
2023-05-28T06:11:24.424Z,65.35
2023-05-28T06:13:51.770Z,62.84
2023-05-28T06:16:19.033Z,61.66
2023-05-28T06:18:45.692Z,60.38
2023-05-28T06:21:12.287Z,60.44
2023-05-28T06:23:38.833Z,60.35
2023-05-28T06:26:06.538Z,60.15
2023-05-28T06:28:33.095Z,60.65
2023-05-28T06:31:00.220Z,60.44
2023-05-28T06:33:26.863Z,60.92
2023-05-28T06:35:53.711Z,60.98
2023-05-28T06:38:20.616Z,60.81
2023-05-28T06:40:47.306Z,60.57
2023-05-28T06:43:14.006Z,59.89
2023-05-28T06:45:58.518Z,59.93
2023-05-28T06:48:25.051Z,59.70
2023-05-28T06:50:51.601Z,59.69
2023-05-28T06:53:18.214Z,61.18
2023-05-28T06:55:45.511Z,59.87
2023-05-28T06:58:24.179Z,59.90
2023-05-28T07:01:09.074Z,60.42
2023-05-28T07:03:49.621Z,59.90
2023-05-28T07:06:20.333Z,59.73
2023-05-28T07:08:47.532Z,59.59
2023-05-28T07:11:15.325Z,59.12
2023-05-28T07:13:46.327Z,58.45
2023-05-28T07:16:12.988Z,58.16
2023-05-28T07:18:40.344Z,58.21
2023-05-28T07:21:06.888Z,57.96
2023-05-28T07:23:39.016Z,57.88
2023-05-28T07:26:06.301Z,59.23
2023-05-28T07:28:32.860Z,58.90
2023-05-28T07:30:59.302Z,59.29
2023-05-28T07:33:26.050Z,58.52
2023-05-28T07:35:53.413Z,57.67
2023-05-28T07:38:20.124Z,56.96
2023-05-28T07:40:51.179Z,58.18
2023-05-28T07:43:31.919Z,57.66
2023-05-28T07:46:03.993Z,57.86
2023-05-28T07:48:37.875Z,57.42
2023-05-28T07:51:18.212Z,56.18
2023-05-28T07:53:49.334Z,57.73
2023-05-28T07:56:21.897Z,56.74
2023-05-28T07:58:48.552Z,56.39
2023-05-28T08:01:18.065Z,57.84
2023-05-28T08:03:44.877Z,57.02
2023-05-28T08:06:12.690Z,57.10
2023-05-28T08:08:39.508Z,56.48
2023-05-28T08:11:08.106Z,56.29
2023-05-28T08:13:34.622Z,55.01
2023-05-28T08:16:05.821Z,54.91
2023-05-28T08:18:48.188Z,55.64
2023-05-28T08:21:15.292Z,57.25
2023-05-28T08:23:42.339Z,55.59
2023-05-28T08:26:10.063Z,56.63
2023-05-28T08:28:38.102Z,54.88
2023-05-28T08:31:05.093Z,54.58
2023-05-28T08:33:54.714Z,54.47
2023-05-28T08:36:21.577Z,53.87
2023-05-28T08:38:50.220Z,55.39
2023-05-28T08:41:20.302Z,55.19
2023-05-28T08:43:46.998Z,53.37
2023-05-28T08:46:14.030Z,54.49
2023-05-28T08:48:59.256Z,53.45
2023-05-28T08:51:28.602Z,53.12
2023-05-28T08:53:56.762Z,52.67
2023-05-28T08:56:29.240Z,51.37
2023-05-28T08:58:56.373Z,51.85
2023-05-28T09:01:23.715Z,52.47
2023-05-28T09:04:05.781Z,52.23
2023-05-28T09:06:39.302Z,50.58
2023-05-28T09:09:11.898Z,51.15
2023-05-28T09:11:44.032Z,51.51
2023-05-28T09:14:12.853Z,51.88
2023-05-28T09:16:43.909Z,51.32
2023-05-28T09:19:18.371Z,49.08
2023-05-28T09:21:56.867Z,48.49
2023-05-28T09:24:26.939Z,49.66
2023-05-28T09:27:12.395Z,49.71
2023-05-28T09:29:40.363Z,48.09
2023-05-28T09:32:06.877Z,48.14
2023-05-28T09:34:34.601Z,47.92
2023-05-28T09:37:01.214Z,47.21
2023-05-28T09:39:28.601Z,48.45
2023-05-28T09:42:10.256Z,46.80
2023-05-28T09:44:40.274Z,46.48
2023-05-28T09:47:17.621Z,46.21
2023-05-28T09:49:48.493Z,45.46
2023-05-28T09:52:22.234Z,45.02
2023-05-28T09:54:52.943Z,46.01
2023-05-28T09:57:28.541Z,46.34
2023-05-28T09:59:56.662Z,44.38
2023-05-28T10:02:43.193Z,45.00
2023-05-28T10:05:12.012Z,45.41
2023-05-28T10:07:41.538Z,45.98
2023-05-28T10:10:11.319Z,43.89
2023-05-28T10:12:41.093Z,43.55
2023-05-28T10:15:08.508Z,43.36
2023-05-28T10:17:36.949Z,44.80
2023-05-28T10:20:06.034Z,43.27
2023-05-28T10:22:33.339Z,45.09
2023-05-28T10:25:01.765Z,43.07
2023-05-28T10:27:34.770Z,44.51
2023-05-28T10:30:04.871Z,44.99
2023-05-28T10:32:39.290Z,45.51
2023-05-28T10:35:06.367Z,44.60
2023-05-28T10:37:32.946Z,45.24
2023-05-28T10:40:00.435Z,44.09
2023-05-28T10:42:27.170Z,43.43
2023-05-28T10:45:07.707Z,43.72
2023-05-28T10:47:35.849Z,42.19
2023-05-28T10:50:18.300Z,41.62
2023-05-28T10:53:08.573Z,40.48
2023-05-28T10:55:55.474Z,41.88
2023-05-28T10:58:29.569Z,41.66
2023-05-28T11:01:19.897Z,40.58
2023-05-28T11:03:54.192Z,38.68
2023-05-28T11:06:21.336Z,38.04
2023-05-28T11:08:49.419Z,37.91
2023-05-28T11:11:18.427Z,39.61
2023-05-28T11:13:47.162Z,38.84
2023-05-28T11:16:16.511Z,37.48
2023-05-28T11:19:02.972Z,36.67
2023-05-28T11:21:29.612Z,38.24
2023-05-28T11:24:01.158Z,37.00
2023-05-28T11:26:28.491Z,37.71
2023-05-28T11:28:55.360Z,40.12
2023-05-28T11:31:22.323Z,38.10
2023-05-28T11:33:51.808Z,37.54
2023-05-28T11:36:20.782Z,37.71
2023-05-28T11:38:47.968Z,39.89
2023-05-28T11:41:14.485Z,40.35
2023-05-28T11:43:41.052Z,40.44
2023-05-28T11:46:07.725Z,40.39
2023-05-28T11:48:38.966Z,39.69
2023-05-28T11:51:06.489Z,39.12
2023-05-28T11:53:43.536Z,39.38
2023-05-28T11:56:11.222Z,38.88
2023-05-28T11:58:41.383Z,39.61
2023-05-28T12:01:08.353Z,39.52
2023-05-28T12:03:36.027Z,40.01
2023-05-28T12:06:02.880Z,40.11
2023-05-28T12:08:29.499Z,39.85
2023-05-28T12:11:07.245Z,40.02
2023-05-28T12:13:39.008Z,39.61
2023-05-28T12:16:11.079Z,39.74
2023-05-28T12:18:44.235Z,39.17
2023-05-28T12:21:12.569Z,38.50
2023-05-28T12:23:39.085Z,38.57
2023-05-28T12:26:10.103Z,38.71
2023-05-28T12:28:40.758Z,38.82
2023-05-28T12:31:08.553Z,38.89
2023-05-28T12:33:35.626Z,38.33
2023-05-28T12:36:02.270Z,38.55
2023-05-28T12:38:29.088Z,38.27
2023-05-28T12:40:56.104Z,38.20
2023-05-28T12:43:23.035Z,38.02
2023-05-28T12:45:49.649Z,37.78
2023-05-28T12:48:16.469Z,37.82
2023-05-28T12:50:43.041Z,36.39
2023-05-28T12:53:09.659Z,36.73
2023-05-28T12:55:36.299Z,36.17
2023-05-28T12:58:03.101Z,36.08
2023-05-28T13:00:29.922Z,34.79
2023-05-28T13:02:56.498Z,35.48
2023-05-28T13:05:23.449Z,34.99
2023-05-28T13:07:50.093Z,34.34
2023-05-28T13:10:16.758Z,34.45
2023-05-28T13:12:43.266Z,33.25
2023-05-28T13:15:10.192Z,31.59
2023-05-28T13:17:36.793Z,30.16
2023-05-28T13:20:07.613Z,30.41
2023-05-28T13:22:36.627Z,29.53
2023-05-28T13:25:04.197Z,28.38
2023-05-28T13:27:31.475Z,28.24
2023-05-28T13:29:58.594Z,27.62
2023-05-28T13:32:25.966Z,26.82
2023-05-28T13:34:52.999Z,26.49
2023-05-28T13:37:19.632Z,26.53
2023-05-28T13:39:47.285Z,27.41
2023-05-28T13:42:14.216Z,27.60
2023-05-28T13:44:41.216Z,27.06
2023-05-28T13:47:08.278Z,25.67
2023-05-28T13:49:34.877Z,24.21
2023-05-28T13:52:01.526Z,25.68
2023-05-28T13:54:28.128Z,24.96
2023-05-28T13:56:54.650Z,23.77
2023-05-28T13:59:21.178Z,23.85
2023-05-28T14:01:47.983Z,23.65
2023-05-28T14:04:14.671Z,24.40
2023-05-28T14:06:41.170Z,24.43
2023-05-28T14:09:07.678Z,26.13
2023-05-28T14:11:58.467Z,25.35
2023-05-28T14:14:20.629Z,25.50
2023-05-28T14:16:47.243Z,25.49
2023-05-28T14:19:13.750Z,24.40
2023-05-28T14:21:41.139Z,24.98
2023-05-28T14:24:07.752Z,24.80
2023-05-28T14:26:34.262Z,24.17
2023-05-28T14:29:00.790Z,24.31
2023-05-28T14:31:27.701Z,25.06
2023-05-28T14:33:54.363Z,25.99
2023-05-28T14:36:21.276Z,24.73
2023-05-28T14:38:48.040Z,25.17
2023-05-28T14:41:14.569Z,24.59
2023-05-28T14:43:41.093Z,26.57
2023-05-28T14:46:07.660Z,26.24
2023-05-28T14:48:34.257Z,26.05
2023-05-28T14:51:02.497Z,26.02
2023-05-28T14:53:29.385Z,25.96
2023-05-28T14:55:56.051Z,26.66
2023-05-28T14:58:23.948Z,25.78
2023-05-28T15:00:50.455Z,25.78
2023-05-28T15:03:17.164Z,25.41
2023-05-28T15:05:43.845Z,25.82
2023-05-28T15:08:11.420Z,25.00
2023-05-28T15:10:37.938Z,25.18
2023-05-28T15:13:04.778Z,26.09
2023-05-28T15:15:31.289Z,25.25
2023-05-28T15:17:57.798Z,24.56
2023-05-28T15:20:24.450Z,23.77
2023-05-28T15:22:51.053Z,25.39
2023-05-28T15:25:20.630Z,24.72
2023-05-28T15:27:47.553Z,24.56
2023-05-28T15:30:15.456Z,24.09
2023-05-28T15:32:42.461Z,25.07
2023-05-28T15:35:09.758Z,25.86
2023-05-28T15:37:36.491Z,24.96
2023-05-28T15:40:03.749Z,24.38
2023-05-28T15:42:30.466Z,24.53
2023-05-28T15:44:57.157Z,24.38
2023-05-28T15:47:23.727Z,25.08
2023-05-28T15:49:50.267Z,24.05
2023-05-28T15:52:16.823Z,25.24
2023-05-28T15:54:43.587Z,25.43
2023-05-28T15:57:10.826Z,25.70
2023-05-28T15:59:43.952Z,25.56
2023-05-28T16:02:14.666Z,25.38
2023-05-28T16:04:41.225Z,25.51
2023-05-28T16:07:08.039Z,25.12
2023-05-28T16:09:35.690Z,24.88
2023-05-28T16:12:03.326Z,25.22
2023-05-28T16:14:35.048Z,24.91
2023-05-28T16:17:02.575Z,25.27
2023-05-28T16:19:29.431Z,26.38
2023-05-28T16:21:56.136Z,25.77
2023-05-28T16:24:22.645Z,24.77
2023-05-28T16:26:51.114Z,25.06
2023-05-28T16:29:21.621Z,25.14
2023-05-28T16:31:48.630Z,25.53
2023-05-28T16:34:16.177Z,25.19
2023-05-28T16:36:43.545Z,25.74
2023-05-28T16:39:10.243Z,26.22
2023-05-28T16:41:36.930Z,26.21
2023-05-28T16:44:03.625Z,26.40
2023-05-28T16:46:30.332Z,27.21
2023-05-28T16:48:57.125Z,26.87
2023-05-28T16:51:23.999Z,26.82
2023-05-28T16:53:51.668Z,26.48
2023-05-28T16:56:18.695Z,26.39
2023-05-28T16:58:45.189Z,27.04
2023-05-28T17:01:12.122Z,28.27
2023-05-28T17:03:38.739Z,30.57
2023-05-28T17:06:05.495Z,29.61
2023-05-28T17:08:32.113Z,30.75
2023-05-28T17:10:58.718Z,32.01
2023-05-28T17:13:25.268Z,32.85
2023-05-28T17:15:51.885Z,32.98
2023-05-28T17:18:18.516Z,32.83
2023-05-28T17:20:45.179Z,34.14
2023-05-28T17:23:11.796Z,34.15
2023-05-28T17:25:38.336Z,34.55
2023-05-28T17:28:04.892Z,34.80
2023-05-28T17:30:31.377Z,35.15
2023-05-28T17:32:57.908Z,35.13
2023-05-28T17:35:24.436Z,35.14
2023-05-28T17:37:51.104Z,35.18
2023-05-28T17:40:17.636Z,35.28
2023-05-28T17:42:44.163Z,35.22
2023-05-28T17:45:11.005Z,35.70
2023-05-28T17:47:37.591Z,35.54
2023-05-28T17:50:04.402Z,35.61
2023-05-28T17:52:31.220Z,35.68
2023-05-28T17:54:57.809Z,35.76
2023-05-28T17:57:24.419Z,36.38
2023-05-28T17:59:51.354Z,36.17
2023-05-28T18:02:17.909Z,36.24
2023-05-28T18:04:44.476Z,36.56
2023-05-28T18:07:10.918Z,36.67
2023-05-28T18:09:37.475Z,36.89
2023-05-28T18:12:04.180Z,37.55
2023-05-28T18:14:31.270Z,37.66
2023-05-28T18:17:02.348Z,38.19
2023-05-28T18:19:29.835Z,38.25
2023-05-28T18:21:56.529Z,38.28
2023-05-28T18:24:23.148Z,38.37
2023-05-28T18:26:49.740Z,38.64
2023-05-28T18:29:16.239Z,38.94
2023-05-28T18:31:44.612Z,39.02
2023-05-28T18:34:11.302Z,39.72
2023-05-28T18:36:38.403Z,40.03
2023-05-28T18:39:05.405Z,40.08
2023-05-28T18:41:31.986Z,40.42
2023-05-28T18:43:58.574Z,41.76
2023-05-28T18:46:25.586Z,41.33
2023-05-28T18:48:52.162Z,41.65
2023-05-28T18:51:18.731Z,41.89
2023-05-28T18:53:45.450Z,42.26
2023-05-28T18:56:11.992Z,43.46
2023-05-28T18:58:38.620Z,45.33
2023-05-28T19:01:05.723Z,49.16
2023-05-28T19:03:32.271Z,53.06
2023-05-28T19:05:58.896Z,55.49
2023-05-28T19:08:25.695Z,57.82
2023-05-28T19:10:52.446Z,59.21
2023-05-28T19:13:19.084Z,59.93
2023-05-28T19:15:46.314Z,61.64
2023-05-28T19:18:13.020Z,62.96
2023-05-28T19:20:40.213Z,63.57
2023-05-28T19:23:07.080Z,64.11
2023-05-28T19:25:33.753Z,65.71
2023-05-28T19:28:00.435Z,66.05
2023-05-28T19:30:27.128Z,66.19
2023-05-28T19:32:53.697Z,66.75
2023-05-28T19:35:20.265Z,68.44
2023-05-28T19:37:50.006Z,67.60
2023-05-28T19:40:16.522Z,67.99
2023-05-28T19:42:43.096Z,69.80
2023-05-28T19:45:10.153Z,69.94
2023-05-28T19:47:37.088Z,70.86
2023-05-28T19:50:05.636Z,70.92
2023-05-28T19:52:32.165Z,70.91
2023-05-28T19:54:59.730Z,71.05
2023-05-28T19:57:26.743Z,71.25
2023-05-28T19:59:55.364Z,71.86
2023-05-28T20:02:27.332Z,71.51
2023-05-28T20:04:54.506Z,72.92
2023-05-28T20:07:21.281Z,72.48
2023-05-28T20:09:47.825Z,73.92
2023-05-28T20:12:14.333Z,74.47
2023-05-28T20:14:40.897Z,74.20
2023-05-28T20:17:09.982Z,74.40
2023-05-28T20:19:40.379Z,74.72
2023-05-28T20:22:07.232Z,74.53
2023-05-28T20:24:36.360Z,74.11
2023-05-28T20:27:03.261Z,73.76
2023-05-28T20:29:35.886Z,73.41
2023-05-28T20:32:05.413Z,73.29
2023-05-28T20:34:32.825Z,73.87
2023-05-28T20:37:01.006Z,73.74
2023-05-28T20:39:29.078Z,73.07
2023-05-28T20:41:56.823Z,73.74
2023-05-28T20:44:23.604Z,74.09
2023-05-28T20:46:52.952Z,75.07
2023-05-28T20:49:19.907Z,74.63
2023-05-28T20:51:46.906Z,74.38
2023-05-28T20:54:13.411Z,75.56
2023-05-28T20:56:41.233Z,75.28
2023-05-28T20:59:08.169Z,75.20
2023-05-28T21:01:35.364Z,75.15
2023-05-28T21:04:02.019Z,74.25
2023-05-28T21:06:29.904Z,74.57
2023-05-28T21:08:56.920Z,73.92
2023-05-28T21:11:24.622Z,75.29
2023-05-28T21:13:53.525Z,74.35
2023-05-28T21:16:20.061Z,75.36
2023-05-28T21:18:46.671Z,75.26
2023-05-28T21:21:13.558Z,75.30
2023-05-28T21:23:40.104Z,74.19
2023-05-28T21:26:06.745Z,74.14
2023-05-28T21:28:33.262Z,75.46
2023-05-28T21:31:01.380Z,76.42
2023-05-28T21:33:28.360Z,75.00
2023-05-28T21:35:56.107Z,77.21
2023-05-28T21:38:26.384Z,76.31
2023-05-28T21:40:53.484Z,77.01
2023-05-28T21:43:23.010Z,77.17
2023-05-28T21:45:49.609Z,76.21
2023-05-28T21:48:17.055Z,76.21
2023-05-28T21:50:44.036Z,76.44
2023-05-28T21:53:13.652Z,76.59
2023-05-28T21:55:41.011Z,76.91
2023-05-28T21:58:07.606Z,76.36
2023-05-28T22:00:34.391Z,77.32
2023-05-28T22:03:01.234Z,76.94
2023-05-28T22:05:27.842Z,77.45
2023-05-28T22:07:54.742Z,77.33
2023-05-28T22:10:21.277Z,78.11
2023-05-28T22:12:50.657Z,77.00
2023-05-28T22:15:17.292Z,77.60
2023-05-28T22:17:43.877Z,77.43
2023-05-28T22:20:11.180Z,76.84
2023-05-28T22:22:39.077Z,77.15
2023-05-28T22:25:08.095Z,77.07
2023-05-28T22:27:35.782Z,77.75
2023-05-28T22:30:03.957Z,77.74
2023-05-28T22:32:31.000Z,77.87
2023-05-28T22:34:57.621Z,78.53
2023-05-28T22:37:24.468Z,79.18
2023-05-28T22:39:50.963Z,79.24
2023-05-28T22:42:17.400Z,79.10
2023-05-28T22:44:43.911Z,79.38
2023-05-28T22:47:10.933Z,79.53
2023-05-28T22:49:37.538Z,80.77
2023-05-28T22:52:04.843Z,80.89
2023-05-28T22:54:32.112Z,81.86
2023-05-28T22:56:58.732Z,81.92
2023-05-28T22:59:25.537Z,82.27
2023-05-28T23:01:52.359Z,83.77
2023-05-28T23:04:18.867Z,85.68
2023-05-28T23:06:45.476Z,85.33
2023-05-28T23:09:12.267Z,86.67
2023-05-28T23:11:42.946Z,86.30
2023-05-28T23:14:10.136Z,87.32
2023-05-28T23:16:36.956Z,86.44
2023-05-28T23:19:03.565Z,87.50
2023-05-28T23:21:30.769Z,88.32
2023-05-28T23:23:57.392Z,89.79
2023-05-28T23:26:23.847Z,89.62
2023-05-28T23:28:52.123Z,89.69
2023-05-28T23:31:19.425Z,89.21
2023-05-28T23:33:46.081Z,89.34
2023-05-28T23:36:12.872Z,90.21
2023-05-28T23:38:39.506Z,89.97
2023-05-28T23:41:06.053Z,90.47
2023-05-28T23:43:32.502Z,90.20
2023-05-28T23:45:59.312Z,90.85
2023-05-28T23:48:26.297Z,90.87
2023-05-28T23:50:52.802Z,91.76
2023-05-28T23:53:19.324Z,92.34
2023-05-28T23:55:45.896Z,93.14
2023-05-28T23:58:12.382Z,93.64
